Time;durP1;ratioP1;P1;durP2;ratioP2;P2;SDS_P1;SDS_P2;PMS_P1;PMS_P2;Temp;Humidity;BMP_temperature;BMP_pressure;BME280_temperature;BME280_humidity;BME280_pressure;Samples;Min_cycle;Max_cycle;Signal;HPM_P1;HPM_P2
2021/10/29 00:00:17;;;;;;;9.80;6.07;;;;;;;;;;5792709;24;32471;-64
2021/10/29 00:02:44;;;;;;;8.57;5.35;;;;;;;;;;5791686;24;34142;-64
2021/10/29 00:05:10;;;;;;;9.55;6.32;;;;;;;;;;5792085;24;32371;-64
2021/10/29 00:07:37;;;;;;;12.18;6.68;;;;;;;;;;5792311;24;32516;-65
2021/10/29 00:10:06;;;;;;;11.77;6.72;;;;;;;;;;5792033;24;32300;-64
2021/10/29 00:12:32;;;;;;;10.95;6.35;;;;;;;;;;5792570;24;34959;-65
2021/10/29 00:15:01;;;;;;;9.15;6.13;;;;;;;;;;5794403;24;32465;-65
2021/10/29 00:17:27;;;;;;;9.20;5.97;;;;;;;;;;5795432;24;32368;-64
2021/10/29 00:19:54;;;;;;;8.05;5.20;;;;;;;;;;5795484;24;32373;-64
2021/10/29 00:22:21;;;;;;;9.20;6.30;;;;;;;;;;5795740;24;32415;-64
2021/10/29 00:24:47;;;;;;;7.95;5.90;;;;;;;;;;5791559;24;35016;-64
2021/10/29 00:27:14;;;;;;;10.57;6.20;;;;;;;;;;5795637;24;32556;-64
2021/10/29 00:29:40;;;;;;;9.60;6.03;;;;;;;;;;5795932;24;32237;-64
2021/10/29 00:32:09;;;;;;;9.05;5.63;;;;;;;;;;5791969;24;32332;-64
2021/10/29 00:34:35;;;;;;;9.75;6.18;;;;;;;;;;5795165;24;33950;-64
2021/10/29 00:37:02;;;;;;;11.90;6.30;;;;;;;;;;5795455;24;32364;-64
2021/10/29 00:39:29;;;;;;;;;;;;;;;;;;5796143;24;32505;-64
2021/10/29 00:41:55;;;;;;;11.88;6.93;;;;;;;;;;5795115;24;32415;-64
2021/10/29 00:44:24;;;;;;;9.68;6.30;;;;;;;;;;5794331;24;32509;-64
2021/10/29 00:46:51;;;;;;;9.63;6.43;;;;;;;;;;5795200;24;35146;-64
2021/10/29 00:49:21;;;;;;;10.15;6.53;;;;;;;;;;5795149;24;32262;-64
2021/10/29 00:51:48;;;;;;;8.70;5.90;;;;;;;;;;5794992;24;32409;-64
2021/10/29 00:54:18;;;;;;;8.75;5.35;;;;;;;;;;5795514;24;32493;-64
2021/10/29 00:56:45;;;;;;;9.88;5.80;;;;;;;;;;5794985;24;35655;-64
2021/10/29 00:59:12;;;;;;;9.30;6.07;;;;;;;;;;5794928;24;32509;-64
2021/10/29 01:01:39;;;;;;;9.35;5.97;;;;;;;;;;5795179;24;32339;-64
2021/10/29 01:04:06;;;;;;;10.18;5.85;;;;;;;;;;5794961;24;32184;-64
2021/10/29 01:06:34;;;;;;;11.23;6.40;;;;;;;;;;5794868;24;32483;-64
2021/10/29 01:09:01;;;;;;;10.93;6.28;;;;;;;;;;5795019;24;32429;-64
2021/10/29 01:11:28;;;;;;;9.45;5.97;;;;;;;;;;5795409;24;32393;-64
2021/10/29 01:13:55;;;;;;;10.35;6.70;;;;;;;;;;5794778;24;32264;-64
2021/10/29 01:16:22;;;;;;;9.55;6.22;;;;;;;;;;5795203;24;32494;-64
2021/10/29 01:18:49;;;;;;;10.88;6.75;;;;;;;;;;5794714;24;33973;-64
2021/10/29 01:21:17;;;;;;;10.75;5.60;;;;;;;;;;5794616;24;32461;-64
2021/10/29 01:23:46;;;;;;;10.20;6.13;;;;;;;;;;5795207;24;32365;-64
2021/10/29 01:26:16;;;;;;;10.85;5.63;;;;;;;;;;5794824;24;32304;-64
2021/10/29 01:28:43;;;;;;;10.18;6.40;;;;;;;;;;5815493;24;32350;-64
2021/10/29 01:31:10;;;;;;;9.73;6.28;;;;;;;;;;5795187;24;32248;-64
2021/10/29 01:33:37;;;;;;;;;;;;;;;;;;5795200;24;32327;-64
2021/10/29 01:36:04;;;;;;;;;;;;;;;;;;5791569;24;32365;-64
2021/10/29 01:38:35;;;;;;;9.95;6.07;;;;;;;;;;5791140;24;32516;-65
2021/10/29 01:41:03;;;;;;;9.43;5.80;;;;;;;;;;5795147;24;35618;-64
2021/10/29 01:43:31;;;;;;;9.10;6.20;;;;;;;;;;5795076;24;32599;-65
2021/10/29 01:45:58;;;;;;;10.13;5.88;;;;;;;;;;5794823;24;32441;-64
2021/10/29 01:48:26;;;;;;;9.23;5.88;;;;;;;;;;5794520;24;32362;-65
2021/10/29 01:50:52;;;;;;;8.32;5.50;;;;;;;;;;5794184;24;32389;-65
2021/10/29 01:53:19;;;;;;;11.45;5.97;;;;;;;;;;5794289;24;32404;-64
2021/10/29 01:55:47;;;;;;;9.82;5.82;;;;;;;;;;5794568;24;32387;-64
2021/10/29 01:58:14;;;;;;;10.90;6.05;;;;;;;;;;5794382;24;32385;-65
2021/10/29 02:00:40;;;;;;;9.25;6.22;;;;;;;;;;5794409;24;32524;-64
2021/10/29 02:03:07;;;;;;;12.40;7.13;;;;;;;;;;5794376;24;34008;-64
2021/10/29 02:05:33;;;;;;;11.93;5.95;;;;;;;;;;5794383;24;32430;-64
2021/10/29 02:08:00;;;;;;;10.65;6.60;;;;;;;;;;5794861;24;33177;-64
2021/10/29 02:10:27;;;;;;;8.52;6.18;;;;;;;;;;5794448;24;32246;-64
2021/10/29 02:12:55;;;;;;;10.23;6.65;;;;;;;;;;5794303;24;32429;-64
2021/10/29 02:15:22;;;;;;;10.80;6.03;;;;;;;;;;5794390;24;32382;-64
2021/10/29 02:17:48;;;;;;;10.25;7.13;;;;;;;;;;5794603;24;32760;-64
2021/10/29 02:20:16;;;;;;;9.93;6.55;;;;;;;;;;5793933;24;32355;-64
2021/10/29 02:22:42;;;;;;;9.75;6.63;;;;;;;;;;5794337;24;32417;-64
2021/10/29 02:25:09;;;;;;;11.35;6.20;;;;;;;;;;5794296;24;35845;-64
2021/10/29 02:27:36;;;;;;;11.07;6.35;;;;;;;;;;5794074;24;32371;-65
2021/10/29 02:30:05;;;;;;;9.95;6.57;;;;;;;;;;5794262;24;32423;-64
2021/10/29 02:32:32;;;;;;;10.90;6.35;;;;;;;;;;5794704;24;32398;-64
2021/10/29 02:34:59;;;;;;;10.52;6.82;;;;;;;;;;5796672;24;32351;-64
2021/10/29 02:37:25;;;;;;;9.60;6.75;;;;;;;;;;5792211;24;32525;-64
2021/10/29 02:39:52;;;;;;;12.13;7.22;;;;;;;;;;5796128;24;32253;-64
2021/10/29 02:42:19;;;;;;;10.55;6.65;;;;;;;;;;5796539;24;32371;-64
2021/10/29 02:44:45;;;;;;;13.65;6.90;;;;;;;;;;5792537;24;32482;-64
2021/10/29 02:47:13;;;;;;;14.00;7.10;;;;;;;;;;5794690;24;34615;-64
2021/10/29 02:49:40;;;;;;;10.50;6.82;;;;;;;;;;5795792;24;32363;-65
2021/10/29 02:52:08;;;;;;;12.13;7.57;;;;;;;;;;5795291;24;32508;-65
2021/10/29 02:54:35;;;;;;;11.40;7.43;;;;;;;;;;5795858;24;32311;-65
2021/10/29 02:57:01;;;;;;;12.68;7.78;;;;;;;;;;5795508;24;32418;-65
2021/10/29 02:59:28;;;;;;;12.88;7.55;;;;;;;;;;5795896;24;32368;-65
2021/10/29 03:01:55;;;;;;;12.07;7.57;;;;;;;;;;5796365;24;32232;-64
2021/10/29 03:04:23;;;;;;;12.75;7.82;;;;;;;;;;5796089;24;32397;-64
2021/10/29 03:06:50;;;;;;;12.68;8.88;;;;;;;;;;5795740;24;32355;-64
2021/10/29 03:09:17;;;;;;;14.02;7.93;;;;;;;;;;5795709;24;34071;-64
2021/10/29 03:11:43;;;;;;;11.50;7.60;;;;;;;;;;5795789;24;32359;-65
2021/10/29 03:14:10;;;;;;;14.90;8.60;;;;;;;;;;5795486;24;32215;-64
2021/10/29 03:16:37;;;;;;;12.60;8.07;;;;;;;;;;5795754;24;32259;-64
2021/10/29 03:19:06;;;;;;;13.32;8.65;;;;;;;;;;5790535;24;33979;-65
2021/10/29 03:21:34;;;;;;;12.07;7.60;;;;;;;;;;5795677;24;32591;-64
2021/10/29 03:24:01;;;;;;;13.35;7.50;;;;;;;;;;5795494;24;32942;-65
2021/10/29 03:26:27;;;;;;;13.80;7.93;;;;;;;;;;5795972;24;32281;-67
2021/10/29 03:28:54;;;;;;;15.23;8.50;;;;;;;;;;5795986;24;32455;-66
2021/10/29 03:31:21;;;;;;;14.30;8.65;;;;;;;;;;5795821;24;35036;-67
2021/10/29 03:33:48;;;;;;;15.68;8.43;;;;;;;;;;5796181;24;32191;-67
2021/10/29 03:36:14;;;;;;;15.25;8.38;;;;;;;;;;5795516;24;32462;-66
2021/10/29 03:38:59;;;;;;;15.18;8.15;;;;;;;;;;5796342;24;32405;-68
2021/10/29 03:41:28;;;;;;;12.68;7.95;;;;;;;;;;5793179;24;34994;-66
2021/10/29 03:46:57;;;;;;;15.10;8.40;;;;;;;;;;5773622;24;32683;-69
2021/10/29 03:52:25;;;;;;;15.15;8.18;;;;;;;;;;5785454;24;32926;-68
2021/10/29 03:54:56;;;;;;;16.42;7.78;;;;;;;;;;5795744;24;34133;-68
2021/10/29 03:57:24;;;;;;;12.82;7.72;;;;;;;;;;5795451;24;32801;-66
2021/10/29 03:59:51;;;;;;;12.73;7.50;;;;;;;;;;5793748;24;32333;-68
2021/10/29 04:02:18;;;;;;;13.27;8.95;;;;;;;;;;5795812;24;32196;-68
2021/10/29 04:04:45;;;;;;;15.13;7.72;;;;;;;;;;5795279;24;34595;-67
2021/10/29 04:07:12;;;;;;;13.20;8.07;;;;;;;;;;5795479;24;32493;-67
2021/10/29 04:09:38;;;;;;;13.45;8.00;;;;;;;;;;5794952;24;32297;-66
2021/10/29 04:12:07;;;;;;;14.30;8.60;;;;;;;;;;5795660;24;32299;-66
2021/10/29 04:14:35;;;;;;;11.77;7.97;;;;;;;;;;5794858;24;32387;-66
2021/10/29 04:17:01;;;;;;;;;;;;;;;;;;5794146;24;34567;-66
2021/10/29 04:19:28;;;;;;;12.40;7.72;;;;;;;;;;5795368;24;32454;-66
2021/10/29 04:21:54;;;;;;;13.15;7.97;;;;;;;;;;5795220;24;32213;-68
2021/10/29 04:24:21;;;;;;;14.30;8.55;;;;;;;;;;5795296;24;32244;-69
2021/10/29 04:26:48;;;;;;;14.32;8.48;;;;;;;;;;5794958;24;35432;-65
2021/10/29 04:29:18;;;;;;;14.02;7.90;;;;;;;;;;5795182;24;32332;-69
2021/10/29 04:31:50;;;;;;;12.38;8.38;;;;;;;;;;5795319;24;32236;-67
2021/10/29 04:34:18;;;;;;;12.77;8.40;;;;;;;;;;5795156;24;32415;-67
2021/10/29 04:36:45;;;;;;;14.57;8.52;;;;;;;;;;5793746;24;32474;-67
2021/10/29 04:39:14;;;;;;;16.63;8.77;;;;;;;;;;5794922;24;34073;-66
2021/10/29 04:41:41;;;;;;;14.82;8.07;;;;;;;;;;5794910;24;32443;-67
2021/10/29 04:44:08;;;;;;;11.52;7.05;;;;;;;;;;5795088;24;32288;-67
2021/10/29 04:46:36;;;;;;;14.27;8.50;;;;;;;;;;5795147;24;32295;-66
2021/10/29 04:49:03;;;;;;;15.65;7.82;;;;;;;;;;5794378;24;34736;-66
2021/10/29 04:51:31;;;;;;;14.05;7.88;;;;;;;;;;5795124;24;32297;-66
2021/10/29 04:53:59;;;;;;;13.25;7.97;;;;;;;;;;5791339;24;32790;-67
2021/10/29 04:56:25;;;;;;;12.70;7.93;;;;;;;;;;5794669;24;32363;-69
2021/10/29 04:58:52;;;;;;;12.75;7.47;;;;;;;;;;5795075;24;32338;-68
2021/10/29 05:01:19;;;;;;;10.25;7.03;;;;;;;;;;5795006;24;35849;-68
2021/10/29 05:03:47;;;;;;;13.27;8.27;;;;;;;;;;5794882;24;32460;-67
2021/10/29 05:06:14;;;;;;;12.10;7.90;;;;;;;;;;5794587;24;32327;-69
2021/10/29 05:08:40;;;;;;;11.85;7.63;;;;;;;;;;5794552;24;32448;-68
2021/10/29 05:11:07;;;;;;;11.10;7.45;;;;;;;;;;5794516;24;35186;-67
2021/10/29 05:13:34;;;;;;;12.32;7.55;;;;;;;;;;5794181;24;32281;-68
2021/10/29 05:16:02;;;;;;;12.10;7.45;;;;;;;;;;5793317;24;32484;-67
2021/10/29 05:18:28;;;;;;;11.70;7.10;;;;;;;;;;5794290;24;32387;-68
2021/10/29 05:20:57;;;;;;;13.23;7.22;;;;;;;;;;5794901;24;32441;-67
2021/10/29 05:23:25;;;;;;;9.77;6.55;;;;;;;;;;5794413;24;34161;-67
2021/10/29 05:25:52;;;;;;;13.13;7.03;;;;;;;;;;5794354;24;32611;-67
2021/10/29 05:28:19;;;;;;;11.52;6.55;;;;;;;;;;5794281;24;32336;-67
2021/10/29 05:30:45;;;;;;;8.95;6.53;;;;;;;;;;5794261;24;32449;-67
2021/10/29 05:33:12;;;;;;;9.77;6.65;;;;;;;;;;5794436;24;34709;-67
2021/10/29 05:35:38;;;;;;;9.95;6.07;;;;;;;;;;5794362;24;32308;-68
2021/10/29 05:38:06;;;;;;;9.75;5.85;;;;;;;;;;5794379;24;32494;-68
2021/10/29 05:40:33;;;;;;;10.00;5.25;;;;;;;;;;5794242;24;32362;-67
2021/10/29 05:43:00;;;;;;;9.32;5.32;;;;;;;;;;5794480;24;32414;-67
2021/10/29 05:45:27;;;;;;;7.63;4.63;;;;;;;;;;5793505;24;35149;-68
2021/10/29 05:48:00;;;;;;;6.78;4.90;;;;;;;;;;5793905;24;32400;-68
2021/10/29 05:50:27;;;;;;;7.45;5.15;;;;;;;;;;5794245;24;32252;-68
2021/10/29 05:52:54;;;;;;;8.60;4.82;;;;;;;;;;5794189;24;32444;-67
2021/10/29 05:55:22;;;;;;;9.30;5.22;;;;;;;;;;5790418;24;34042;-70
2021/10/29 05:57:51;;;;;;;6.68;3.75;;;;;;;;;;5794222;24;32299;-68
2021/10/29 06:00:20;;;;;;;4.93;2.83;;;;;;;;;;5790486;24;32441;-68
2021/10/29 06:02:48;;;;;;;5.43;3.17;;;;;;;;;;5793654;24;32910;-69
2021/10/29 06:05:19;;;;;;;4.50;2.28;;;;;;;;;;5792891;24;57105;-69
2021/10/29 06:07:46;;;;;;;4.95;2.67;;;;;;;;;;5791452;24;34158;-67
2021/10/29 06:10:15;;;;;;;5.85;2.55;;;;;;;;;;5793386;24;32500;-69
2021/10/29 06:12:44;;;;;;;5.90;2.85;;;;;;;;;;5791741;24;32541;-68
2021/10/29 06:15:18;;;;;;;4.47;2.67;;;;;;;;;;5793985;24;32704;-68
2021/10/29 06:17:44;;;;;;;5.30;2.83;;;;;;;;;;5792724;24;34014;-68
2021/10/29 06:20:12;;;;;;;8.15;4.00;;;;;;;;;;5794413;24;32542;-68
2021/10/29 06:22:45;;;;;;;7.30;4.13;;;;;;;;;;5794134;24;32829;-68
2021/10/29 06:30:35;;;;;;;16.88;7.55;;;;;;;;;;5794075;24;35493;-68
2021/10/29 06:33:02;;;;;;;17.75;7.80;;;;;;;;;;5794252;24;32462;-68
2021/10/29 06:35:30;;;;;;;13.77;5.55;;;;;;;;;;5793779;24;32336;-68
2021/10/29 06:37:58;;;;;;;9.25;4.50;;;;;;;;;;5794230;24;32260;-68
2021/10/29 06:40:26;;;;;;;6.47;2.88;;;;;;;;;;5794140;24;33988;-66
2021/10/29 06:43:02;;;;;;;5.47;2.35;;;;;;;;;;5793760;24;32325;-66
2021/10/29 06:46:03;;;;;;;4.80;2.17;;;;;;;;;;5792171;24;32512;-67
2021/10/29 06:48:53;;;;;;;3.33;1.60;;;;;;;;;;5793690;24;32397;-67
2021/10/29 07:40:41;;;;;;;3.53;1.85;;;;;;;;;;5795984;24;32514;-68
2021/10/29 07:43:10;;;;;;;1.73;1.50;;;;;;;;;;5793495;24;35186;-68
2021/10/29 07:45:45;;;;;;;1.92;1.45;;;;;;;;;;5795468;24;32274;-68
2021/10/29 07:48:13;;;;;;;2.20;1.65;;;;;;;;;;5795292;24;32573;-69
2021/10/29 07:50:40;;;;;;;3.08;1.67;;;;;;;;;;5794946;24;32311;-69
2021/10/29 07:53:28;;;;;;;1.33;1.23;;;;;;;;;;5795333;24;35524;-69
2021/10/29 07:55:56;;;;;;;2.92;1.15;;;;;;;;;;5790727;24;32341;-68
2021/10/29 07:58:25;;;;;;;2.13;1.17;;;;;;;;;;5794974;24;32508;-68
2021/10/29 08:00:54;;;;;;;1.98;1.20;;;;;;;;;;5795174;24;32338;-68
2021/10/29 08:03:22;;;;;;;1.85;1.52;;;;;;;;;;5795378;24;32337;-69
2021/10/29 08:05:49;;;;;;;1.92;1.33;;;;;;;;;;5795010;24;33962;-68
2021/10/29 08:08:17;;;;;;;2.30;2.00;;;;;;;;;;5795109;24;32349;-68
2021/10/29 08:10:47;;;;;;;2.35;2.08;;;;;;;;;;5787389;24;32313;-69
2021/10/29 08:13:14;;;;;;;3.22;1.90;;;;;;;;;;5794873;24;32393;-68
2021/10/29 08:15:42;;;;;;;2.28;1.95;;;;;;;;;;5794669;24;34304;-69
2021/10/29 08:18:12;;;;;;;2.83;2.05;;;;;;;;;;5794815;24;32588;-68
2021/10/29 08:20:40;;;;;;;2.28;1.77;;;;;;;;;;5794155;24;32424;-67
2021/10/29 08:23:11;;;;;;;2.97;2.05;;;;;;;;;;5794609;24;32523;-69
2021/10/29 08:25:38;;;;;;;2.25;2.05;;;;;;;;;;5795012;24;32477;-67
2021/10/29 08:28:05;;;;;;;4.03;1.33;;;;;;;;;;5794464;24;35490;-67
2021/10/29 08:30:32;;;;;;;1.90;1.42;;;;;;;;;;5794546;24;32174;-67
2021/10/29 08:32:58;;;;;;;3.55;1.17;;;;;;;;;;5794449;24;32412;-67
2021/10/29 08:35:25;;;;;;;1.02;0.85;;;;;;;;;;5794509;24;32733;-68
2021/10/29 08:37:54;;;;;;;1.83;1.27;;;;;;;;;;5794591;24;35347;-68
2021/10/29 08:40:22;;;;;;;2.42;1.00;;;;;;;;;;5794910;24;32443;-68
2021/10/29 08:42:49;;;;;;;2.10;1.60;;;;;;;;;;5794593;24;32495;-67
2021/10/29 08:45:17;;;;;;;2.38;2.17;;;;;;;;;;5794341;24;32463;-68
2021/10/29 08:47:45;;;;;;;2.40;1.50;;;;;;;;;;5794355;24;32425;-67
2021/10/29 08:50:15;;;;;;;2.47;1.45;;;;;;;;;;5792814;24;34477;-67
2021/10/29 08:52:45;;;;;;;2.38;1.50;;;;;;;;;;5794665;24;32346;-67
2021/10/29 08:55:16;;;;;;;4.90;2.40;;;;;;;;;;5794730;24;32371;-68
2021/10/29 08:57:47;;;;;;;1.85;1.10;;;;;;;;;;5794738;24;32889;-68
2021/10/29 09:00:17;;;;;;;1.90;1.70;;;;;;;;;;5794157;24;33978;-67
2021/10/29 09:02:56;;;;;;;2.15;1.95;;;;;;;;;;5794080;24;32421;-68
2021/10/29 09:05:32;;;;;;;1.98;1.20;;;;;;;;;;5794235;24;32375;-68
2021/10/29 09:08:51;;;;;;;1.42;1.02;;;;;;;;;;5794725;24;32274;-67
2021/10/29 09:11:26;;;;;;;1.38;1.02;;;;;;;;;;5790603;24;32418;-67
2021/10/29 09:33:11;;;;;;;5.50;1.80;;;;;;;;;;5793927;24;32455;-67
2021/10/29 09:35:40;;;;;;;2.08;1.60;;;;;;;;;;5794149;24;32298;-67
2021/10/29 09:38:08;;;;;;;2.78;1.98;;;;;;;;;;5793824;24;35312;-67
2021/10/29 09:40:40;;;;;;;2.38;1.88;;;;;;;;;;5793925;24;32267;-67
2021/10/29 09:43:14;;;;;;;1.60;1.35;;;;;;;;;;5794123;24;32499;-68
2021/10/29 09:45:50;;;;;;;2.45;1.95;;;;;;;;;;5794124;24;32282;-67
2021/10/29 09:48:23;;;;;;;1.85;1.20;;;;;;;;;;5793977;24;35362;-69
2021/10/29 09:50:55;;;;;;;2.63;1.98;;;;;;;;;;5793451;24;32415;-67
2021/10/29 09:56:16;;;;;;;2.17;1.98;;;;;;;;;;5793520;24;32482;-68
2021/10/29 09:58:44;;;;;;;2.28;2.03;;;;;;;;;;5790564;24;32440;-67
2021/10/29 10:01:12;;;;;;;2.00;1.13;;;;;;;;;;5792261;24;35777;-67
2021/10/29 10:03:40;;;;;;;2.15;1.63;;;;;;;;;;5793750;24;32280;-67
2021/10/29 10:06:07;;;;;;;1.77;1.30;;;;;;;;;;5793365;24;32553;-68
2021/10/29 10:08:35;;;;;;;2.10;1.25;;;;;;;;;;5793068;24;32336;-67
2021/10/29 10:11:04;;;;;;;;;;;;;;;;;;5793587;24;34445;-67
2021/10/29 10:13:33;;;;;;;2.55;2.10;;;;;;;;;;5793167;24;32396;-68
2021/10/29 10:16:03;;;;;;;2.28;2.08;;;;;;;;;;5793505;24;32374;-68
2021/10/29 10:18:30;;;;;;;1.52;0.98;;;;;;;;;;5793459;24;32588;-70
2021/10/29 10:20:59;;;;;;;2.47;1.90;;;;;;;;;;5787532;24;32457;-70
2021/10/29 10:23:36;;;;;;;2.42;1.52;;;;;;;;;;5793193;24;33999;-68
2021/10/29 10:48:31;;;;;;;4.65;2.15;;;;;;;;;;5792063;24;34245;-69
2021/10/29 10:51:39;;;;;;;2.25;2.05;;;;;;;;;;5792228;24;32575;-69
2021/10/29 10:54:14;;;;;;;1.95;1.77;;;;;;;;;;5792745;24;32302;-69
2021/10/29 10:57:18;;;;;;;1.75;1.65;;;;;;;;;;5794630;24;32292;-67
2021/10/29 11:03:06;;;;;;;2.13;1.33;;;;;;;;;;5795049;24;32431;-70
2021/10/29 11:10:59;;;;;;;2.03;1.63;;;;;;;;;;5794607;24;32426;-69
2021/10/29 11:13:46;;;;;;;1.15;1.02;;;;;;;;;;5794284;24;34722;-67
2021/10/29 11:16:16;;;;;;;2.42;0.98;;;;;;;;;;5793328;24;32932;-69
2021/10/29 11:18:53;;;;;;;2.10;1.02;;;;;;;;;;5793467;24;32356;-69
2021/10/29 11:21:35;;;;;;;2.47;1.02;;;;;;;;;;5795356;24;32420;-70
2021/10/29 11:24:05;;;;;;;1.02;0.73;;;;;;;;;;5792644;24;35085;-68
2021/10/29 11:26:37;;;;;;;1.92;1.83;;;;;;;;;;5793258;24;32556;-69
2021/10/29 11:29:05;;;;;;;2.00;1.85;;;;;;;;;;5792948;24;32239;-69
2021/10/29 11:31:34;;;;;;;2.03;1.80;;;;;;;;;;5788835;24;32765;-69
2021/10/29 11:34:03;;;;;;;2.30;1.42;;;;;;;;;;5790580;24;32441;-68
2021/10/29 11:36:34;;;;;;;1.88;1.77;;;;;;;;;;5793816;24;34467;-68
2021/10/29 11:39:03;;;;;;;1.75;1.35;;;;;;;;;;5793786;24;32369;-69
2021/10/29 11:41:33;;;;;;;1.17;0.95;;;;;;;;;;5793879;24;32235;-69
2021/10/29 11:44:02;;;;;;;1.70;1.60;;;;;;;;;;5793469;24;32271;-70
2021/10/29 11:46:31;;;;;;;1.02;0.85;;;;;;;;;;5792275;24;34151;-69
2021/10/29 11:49:03;;;;;;;1.30;0.90;;;;;;;;;;5792931;24;32808;-68
2021/10/29 11:51:33;;;;;;;2.72;2.10;;;;;;;;;;5793493;24;32358;-68
2021/10/29 11:56:52;;;;;;;1.63;1.42;;;;;;;;;;5793038;24;32378;-68
2021/10/29 11:59:51;;;;;;;1.05;0.95;;;;;;;;;;5793311;24;32346;-67
2021/10/29 12:07:48;;;;;;;1.70;1.60;;;;;;;;;;5794811;24;32396;-69
2021/10/29 12:10:19;;;;;;;1.70;1.60;;;;;;;;;;5793729;24;34414;-69
2021/10/29 12:12:52;;;;;;;1.25;1.08;;;;;;;;;;5793611;24;32440;-68
2021/10/29 12:15:24;;;;;;;1.30;1.00;;;;;;;;;;5794040;24;32547;-68
2021/10/29 12:17:56;;;;;;;1.88;1.73;;;;;;;;;;5794401;24;32383;-69
2021/10/29 12:20:29;;;;;;;1.75;1.23;;;;;;;;;;5794024;24;31881;-68
2021/10/29 12:23:02;;;;;;;2.60;1.55;;;;;;;;;;5793624;24;32664;-69
2021/10/29 12:28:06;;;;;;;1.40;1.30;;;;;;;;;;5794343;24;32197;-68
2021/10/29 12:30:49;;;;;;;;;;;;;;;;;;5794465;24;32364;-68
2021/10/29 12:33:45;;;;;;;2.78;1.27;;;;;;;;;;5794265;24;34617;-68
2021/10/29 13:01:39;;;;;;;2.03;1.40;;;;;;;;;;5745280;24;32631;-69
2021/10/29 13:04:10;;;;;;;3.53;1.63;;;;;;;;;;5793150;24;32334;-68
2021/10/29 13:06:42;;;;;;;5.68;1.65;;;;;;;;;;5792825;24;32325;-69
2021/10/29 13:09:15;;;;;;;3.67;1.10;;;;;;;;;;5791429;24;32304;-68
2021/10/29 13:11:48;;;;;;;2.67;1.75;;;;;;;;;;5790936;24;32680;-70
2021/10/29 13:14:27;;;;;;;4.05;2.20;;;;;;;;;;5791122;24;32473;-70
2021/10/29 13:16:56;;;;;;;3.45;1.45;;;;;;;;;;5790959;24;32428;-69
2021/10/29 13:52:28;;;;;;;4.80;2.40;;;;;;;;;;5793911;24;32409;-70
2021/10/29 14:24:26;;;;;;;3.92;2.60;;;;;;;;;;5790724;24;34176;-67
2021/10/29 14:32:54;;;;;;;5.13;2.65;;;;;;;;;;5791347;24;32635;-68
2021/10/29 14:35:37;;;;;;;4.45;2.72;;;;;;;;;;5791399;24;33969;-68
2021/10/29 14:40:56;;;;;;;3.38;3.08;;;;;;;;;;5791961;24;32501;-67
2021/10/29 14:43:27;;;;;;;;;;;;;;;;;;5792926;24;32422;-67
2021/10/29 15:05:29;;;;;;;2.78;1.50;;;;;;;;;;5791556;24;32991;-67
2021/10/29 15:27:07;;;;;;;3.78;2.08;;;;;;;;;;5819321;24;33341;-67
2021/10/29 15:45:39;;;;;;;4.22;2.47;;;;;;;;;;5872330;24;32454;-67
2021/10/29 15:48:10;;;;;;;2.28;1.65;;;;;;;;;;5872487;24;34764;-66
2021/10/29 15:50:37;;;;;;;2.78;1.95;;;;;;;;;;5871900;24;32311;-67
2021/10/29 15:53:09;;;;;;;4.20;2.53;;;;;;;;;;5871785;24;32691;-67
2021/10/29 15:55:56;;;;;;;2.95;1.55;;;;;;;;;;5873058;24;32686;-68
2021/10/29 16:03:30;;;;;;;2.97;2.65;;;;;;;;;;5867121;24;32384;-66
2021/10/29 16:17:19;;;;;;;3.65;3.35;;;;;;;;;;5808272;24;32675;-70
2021/10/29 16:19:46;;;;;;;3.53;3.22;;;;;;;;;;5872149;24;32533;-69
2021/10/29 16:22:36;;;;;;;4.50;2.40;;;;;;;;;;5847261;24;37434;-69
2021/10/29 16:25:09;;;;;;;3.75;2.75;;;;;;;;;;5871101;24;33001;-68
2021/10/29 16:27:54;;;;;;;3.25;2.15;;;;;;;;;;5871183;24;32561;-68
2021/10/29 16:30:24;;;;;;;3.05;2.30;;;;;;;;;;5871516;24;32392;-66
2021/10/29 16:35:28;;;;;;;4.30;2.60;;;;;;;;;;5871825;24;34324;-66
2021/10/29 16:37:55;;;;;;;3.53;1.83;;;;;;;;;;5871492;24;32364;-65
2021/10/29 16:40:24;;;;;;;2.35;2.05;;;;;;;;;;5871422;24;32299;-65
2021/10/29 16:42:50;;;;;;;3.67;2.75;;;;;;;;;;5872048;24;32414;-66
2021/10/29 16:45:19;;;;;;;2.35;1.70;;;;;;;;;;5871907;24;35042;-66
2021/10/29 16:47:46;;;;;;;3.03;2.72;;;;;;;;;;5871907;24;32418;-64
2021/10/29 16:50:16;;;;;;;3.28;1.77;;;;;;;;;;5871423;24;32524;-65
2021/10/29 16:52:43;;;;;;;4.72;2.80;;;;;;;;;;5869737;24;32408;-65
2021/10/29 16:55:10;;;;;;;;;;;;;;;;;;5871136;24;32359;-66
2021/10/29 16:57:40;;;;;;;4.15;2.88;;;;;;;;;;5870250;24;34396;-66
2021/10/29 17:00:09;;;;;;;2.92;2.30;;;;;;;;;;5870329;24;32481;-66
2021/10/29 17:02:37;;;;;;;3.45;3.03;;;;;;;;;;5870246;24;32347;-66
2021/10/29 17:05:05;;;;;;;4.95;3.05;;;;;;;;;;5866002;24;32353;-67
2021/10/29 17:07:32;;;;;;;3.10;2.58;;;;;;;;;;5870714;24;35041;-66
2021/10/29 17:10:06;;;;;;;2.83;2.53;;;;;;;;;;5866207;24;32375;-66
2021/10/29 17:12:33;;;;;;;2.83;1.88;;;;;;;;;;5869951;24;32632;-66
2021/10/29 17:15:01;;;;;;;2.60;1.83;;;;;;;;;;5870293;24;32552;-65
2021/10/29 17:17:28;;;;;;;3.35;2.92;;;;;;;;;;5870045;24;32285;-65
2021/10/29 17:19:55;;;;;;;3.78;3.33;;;;;;;;;;5869514;24;34062;-66
2021/10/29 17:22:21;;;;;;;3.22;1.63;;;;;;;;;;5870209;24;32979;-66
2021/10/29 17:24:48;;;;;;;2.38;1.98;;;;;;;;;;5871449;24;32348;-68
2021/10/29 17:27:15;;;;;;;5.07;2.75;;;;;;;;;;5871125;24;32417;-67
2021/10/29 17:29:42;;;;;;;4.57;3.08;;;;;;;;;;5871315;24;35748;-66
2021/10/29 17:32:11;;;;;;;3.55;2.67;;;;;;;;;;5871156;24;32494;-66
2021/10/29 17:34:39;;;;;;;4.93;2.50;;;;;;;;;;5869837;24;32537;-66
2021/10/29 17:37:06;;;;;;;2.80;2.13;;;;;;;;;;5871350;24;32506;-66
2021/10/29 17:39:32;;;;;;;3.25;2.85;;;;;;;;;;5869257;24;32545;-67
2021/10/29 17:42:02;;;;;;;3.65;2.47;;;;;;;;;;5869839;24;35556;-67
2021/10/29 17:44:29;;;;;;;4.70;2.65;;;;;;;;;;5867547;24;32795;-67
2021/10/29 17:46:57;;;;;;;3.80;1.90;;;;;;;;;;5870429;24;32430;-67
2021/10/29 17:49:26;;;;;;;3.40;2.05;;;;;;;;;;5869880;24;32401;-68
2021/10/29 17:51:53;;;;;;;3.00;2.70;;;;;;;;;;5869837;24;34112;-67
2021/10/29 17:54:21;;;;;;;3.33;2.42;;;;;;;;;;5869943;24;32624;-67
2021/10/29 17:56:48;;;;;;;4.18;2.70;;;;;;;;;;5870376;24;32375;-67
2021/10/29 17:59:14;;;;;;;3.30;2.47;;;;;;;;;;5869507;24;32347;-68
2021/10/29 18:01:42;;;;;;;2.97;2.28;;;;;;;;;;5869422;24;32574;-68
2021/10/29 18:04:09;;;;;;;3.22;2.63;;;;;;;;;;5868762;24;35052;-67
2021/10/29 18:06:37;;;;;;;3.45;2.90;;;;;;;;;;5869349;24;32637;-68
2021/10/29 18:09:07;;;;;;;3.58;2.22;;;;;;;;;;5869516;24;32337;-67
2021/10/29 18:11:35;;;;;;;3.42;3.10;;;;;;;;;;5865505;24;32706;-67
2021/10/29 18:14:03;;;;;;;3.33;2.72;;;;;;;;;;5864312;24;35092;-68
2021/10/29 18:16:32;;;;;;;2.70;2.38;;;;;;;;;;5867478;24;31992;-67
2021/10/29 18:18:59;;;;;;;2.55;2.05;;;;;;;;;;5868431;24;32473;-67
2021/10/29 18:21:26;;;;;;;4.22;2.65;;;;;;;;;;5870049;24;32559;-66
2021/10/29 18:23:54;;;;;;;5.53;2.83;;;;;;;;;;5870305;24;32616;-71
2021/10/29 18:26:22;;;;;;;4.10;2.88;;;;;;;;;;5869254;24;35441;-69
2021/10/29 18:28:51;;;;;;;4.28;2.88;;;;;;;;;;5869840;24;32541;-67
2021/10/29 18:31:17;;;;;;;4.82;3.60;;;;;;;;;;5869353;24;32419;-68
2021/10/29 18:33:44;;;;;;;4.03;2.28;;;;;;;;;;5868880;24;32705;-68
2021/10/29 18:36:11;;;;;;;3.55;1.92;;;;;;;;;;5868460;24;35784;-68
2021/10/29 18:38:39;;;;;;;3.53;2.97;;;;;;;;;;5869418;24;32281;-67
2021/10/29 18:41:06;;;;;;;;;;;;;;;;;;5870855;24;32389;-67
2021/10/29 18:43:33;;;;;;;3.55;2.83;;;;;;;;;;5870198;24;32415;-66
2021/10/29 18:46:00;;;;;;;6.35;3.28;;;;;;;;;;5870639;24;32340;-67
2021/10/29 18:48:27;;;;;;;6.38;3.63;;;;;;;;;;5870472;24;35224;-67
2021/10/29 18:50:53;;;;;;;5.63;3.67;;;;;;;;;;5869957;24;32394;-68
2021/10/29 18:53:20;;;;;;;5.45;3.03;;;;;;;;;;5870486;24;32734;-66
2021/10/29 18:55:47;;;;;;;3.50;2.53;;;;;;;;;;5870399;24;32535;-67
2021/10/29 18:58:15;;;;;;;5.43;2.97;;;;;;;;;;5869864;24;34920;-66
2021/10/29 19:00:41;;;;;;;5.90;3.40;;;;;;;;;;5869759;24;32478;-67
2021/10/29 19:03:08;;;;;;;3.80;3.28;;;;;;;;;;5869795;24;32486;-68
2021/10/29 19:05:36;;;;;;;4.40;3.70;;;;;;;;;;5870111;24;32688;-68
2021/10/29 19:08:02;;;;;;;;;;;;;;;;;;5870701;24;32505;-67
2021/10/29 19:10:29;;;;;;;4.07;2.08;;;;;;;;;;5870376;24;34859;-68
2021/10/29 19:12:56;;;;;;;4.88;3.05;;;;;;;;;;5870187;24;33008;-68
2021/10/29 19:15:24;;;;;;;3.53;2.10;;;;;;;;;;5871197;24;32361;-66
2021/10/29 19:17:51;;;;;;;4.57;2.20;;;;;;;;;;5839891;24;32938;-66
2021/10/29 19:20:19;;;;;;;4.20;2.38;;;;;;;;;;5871765;24;34323;-66
2021/10/29 19:22:46;;;;;;;3.45;2.92;;;;;;;;;;5871451;24;32559;-65
2021/10/29 19:25:12;;;;;;;3.70;2.92;;;;;;;;;;5871365;24;32442;-65
2021/10/29 19:27:39;;;;;;;4.90;3.35;;;;;;;;;;5871554;24;32458;-66
2021/10/29 19:30:09;;;;;;;4.07;3.22;;;;;;;;;;5871702;24;32398;-66
2021/10/29 19:32:37;;;;;;;4.57;3.25;;;;;;;;;;5871507;24;36116;-66
2021/10/29 19:35:08;;;;;;;4.00;3.15;;;;;;;;;;5871859;24;32412;-66
2021/10/29 19:37:47;;;;;;;5.45;2.65;;;;;;;;;;5870648;24;32418;-66
2021/10/29 19:40:45;;;;;;;3.60;2.63;;;;;;;;;;5870818;24;32790;-66
2021/10/29 19:43:02;;;;;;;4.00;3.45;;;;;;;;;;5870334;24;34614;-66
2021/10/29 19:45:29;;;;;;;3.17;2.83;;;;;;;;;;5871544;24;31965;-65
2021/10/29 19:47:58;;;;;;;2.60;2.40;;;;;;;;;;5872151;24;32310;-65
2021/10/29 19:50:25;;;;;;;2.95;1.85;;;;;;;;;;5872092;24;32479;-65